sensor_id;sensor_type;location;lat;lon;timestamp;temperature;humidity
11573;DHT22;5842;52.426;4.886;2022-07-18T00:00:03;16.20;99.90
11573;DHT22;5842;52.426;4.886;2022-07-18T00:02:31;16.20;99.90
11573;DHT22;5842;52.426;4.886;2022-07-18T00:04:58;16.20;99.90
11573;DHT22;5842;52.426;4.886;2022-07-18T00:07:25;16.20;99.90
11573;DHT22;5842;52.426;4.886;2022-07-18T00:09:52;16.10;99.90
11573;DHT22;5842;52.426;4.886;2022-07-18T00:12:21;16.10;99.90
11573;DHT22;5842;52.426;4.886;2022-07-18T00:14:50;16.10;99.90
11573;DHT22;5842;52.426;4.886;2022-07-18T00:17:17;16.10;99.90
11573;DHT22;5842;52.426;4.886;2022-07-18T00:19:44;16.10;99.90
11573;DHT22;5842;52.426;4.886;2022-07-18T00:22:11;16.10;99.90
11573;DHT22;5842;52.426;4.886;2022-07-18T00:24:38;16.00;99.90
11573;DHT22;5842;52.426;4.886;2022-07-18T00:27:06;16.00;99.90
11573;DHT22;5842;52.426;4.886;2022-07-18T00:29:33;15.90;99.90
11573;DHT22;5842;52.426;4.886;2022-07-18T00:32:04;15.90;99.90
11573;DHT22;5842;52.426;4.886;2022-07-18T00:34:32;15.90;99.90
11573;DHT22;5842;52.426;4.886;2022-07-18T00:36:59;15.90;99.90
11573;DHT22;5842;52.426;4.886;2022-07-18T00:39:26;15.80;99.90
11573;DHT22;5842;52.426;4.886;2022-07-18T00:41:53;15.80;99.90
11573;DHT22;5842;52.426;4.886;2022-07-18T00:44:22;15.80;99.90
11573;DHT22;5842;52.426;4.886;2022-07-18T00:46:50;15.80;99.90
11573;DHT22;5842;52.426;4.886;2022-07-18T00:51:47;15.70;99.90
11573;DHT22;5842;52.426;4.886;2022-07-18T00:54:15;15.60;99.90
11573;DHT22;5842;52.426;4.886;2022-07-18T00:56:44;15.60;99.90
11573;DHT22;5842;52.426;4.886;2022-07-18T00:59:14;15.60;99.90
11573;DHT22;5842;52.426;4.886;2022-07-18T01:01:41;15.60;99.90
11573;DHT22;5842;52.426;4.886;2022-07-18T01:04:15;15.50;99.90
11573;DHT22;5842;52.426;4.886;2022-07-18T01:06:46;15.50;99.90
11573;DHT22;5842;52.426;4.886;2022-07-18T01:09:14;15.50;99.90
11573;DHT22;5842;52.426;4.886;2022-07-18T01:11:42;15.50;99.90
11573;DHT22;5842;52.426;4.886;2022-07-18T01:14:10;15.40;99.90
11573;DHT22;5842;52.426;4.886;2022-07-18T01:16:38;15.40;99.90
11573;DHT22;5842;52.426;4.886;2022-07-18T01:19:05;15.40;99.90
11573;DHT22;5842;52.426;4.886;2022-07-18T01:21:33;15.40;99.90
11573;DHT22;5842;52.426;4.886;2022-07-18T01:24:02;15.40;99.90
11573;DHT22;5842;52.426;4.886;2022-07-18T01:26:30;15.40;99.90
11573;DHT22;5842;52.426;4.886;2022-07-18T01:28:57;15.40;99.90
11573;DHT22;5842;52.426;4.886;2022-07-18T01:31:24;15.40;99.90
11573;DHT22;5842;52.426;4.886;2022-07-18T01:33:54;15.40;99.90
11573;DHT22;5842;52.426;4.886;2022-07-18T01:36:21;15.30;99.90
11573;DHT22;5842;52.426;4.886;2022-07-18T01:38:50;15.30;99.90
11573;DHT22;5842;52.426;4.886;2022-07-18T01:41:17;15.30;99.90
11573;DHT22;5842;52.426;4.886;2022-07-18T01:43:44;15.20;99.90
11573;DHT22;5842;52.426;4.886;2022-07-18T01:46:12;15.20;99.90
11573;DHT22;5842;52.426;4.886;2022-07-18T01:48:39;15.20;99.90
11573;DHT22;5842;52.426;4.886;2022-07-18T01:51:07;15.20;99.90
11573;DHT22;5842;52.426;4.886;2022-07-18T01:53:37;15.20;99.90
11573;DHT22;5842;52.426;4.886;2022-07-18T01:56:06;15.20;99.90
11573;DHT22;5842;52.426;4.886;2022-07-18T01:58:34;15.10;99.90
11573;DHT22;5842;52.426;4.886;2022-07-18T02:01:01;15.20;99.90
11573;DHT22;5842;52.426;4.886;2022-07-18T02:03:28;15.10;99.90
11573;DHT22;5842;52.426;4.886;2022-07-18T02:05:55;15.10;99.90
11573;DHT22;5842;52.426;4.886;2022-07-18T02:08:23;15.20;99.90
11573;DHT22;5842;52.426;4.886;2022-07-18T02:10:50;15.10;99.90
11573;DHT22;5842;52.426;4.886;2022-07-18T02:13:19;15.10;99.90
11573;DHT22;5842;52.426;4.886;2022-07-18T02:15:46;15.10;99.90
11573;DHT22;5842;52.426;4.886;2022-07-18T02:18:14;15.10;99.90
11573;DHT22;5842;52.426;4.886;2022-07-18T02:20:41;15.00;99.90
11573;DHT22;5842;52.426;4.886;2022-07-18T02:23:08;15.00;99.90
11573;DHT22;5842;52.426;4.886;2022-07-18T02:25:35;15.00;99.90
11573;DHT22;5842;52.426;4.886;2022-07-18T02:28:03;15.00;99.90
11573;DHT22;5842;52.426;4.886;2022-07-18T02:32:59;14.90;99.90
11573;DHT22;5842;52.426;4.886;2022-07-18T02:35:26;14.90;99.90
11573;DHT22;5842;52.426;4.886;2022-07-18T02:37:53;14.90;99.90
11573;DHT22;5842;52.426;4.886;2022-07-18T02:40:20;14.90;99.90
11573;DHT22;5842;52.426;4.886;2022-07-18T02:42:48;14.90;99.90
11573;DHT22;5842;52.426;4.886;2022-07-18T02:45:15;14.80;99.90
11573;DHT22;5842;52.426;4.886;2022-07-18T02:47:44;14.80;99.90
11573;DHT22;5842;52.426;4.886;2022-07-18T02:50:11;14.80;99.90
11573;DHT22;5842;52.426;4.886;2022-07-18T02:52:39;14.80;99.90
11573;DHT22;5842;52.426;4.886;2022-07-18T02:55:07;14.70;99.90
11573;DHT22;5842;52.426;4.886;2022-07-18T02:57:34;14.70;99.90
11573;DHT22;5842;52.426;4.886;2022-07-18T03:00:03;14.70;99.90
11573;DHT22;5842;52.426;4.886;2022-07-18T03:02:30;14.70;99.90
11573;DHT22;5842;52.426;4.886;2022-07-18T03:05:03;14.60;99.90
11573;DHT22;5842;52.426;4.886;2022-07-18T03:07:30;14.60;99.90
11573;DHT22;5842;52.426;4.886;2022-07-18T03:09:57;14.60;99.90
11573;DHT22;5842;52.426;4.886;2022-07-18T03:12:24;14.60;99.90
11573;DHT22;5842;52.426;4.886;2022-07-18T03:14:51;14.60;99.90
11573;DHT22;5842;52.426;4.886;2022-07-18T03:17:18;14.60;99.90
11573;DHT22;5842;52.426;4.886;2022-07-18T03:19:46;14.60;99.90
11573;DHT22;5842;52.426;4.886;2022-07-18T03:22:14;14.60;99.90
11573;DHT22;5842;52.426;4.886;2022-07-18T03:24:42;14.60;99.90
11573;DHT22;5842;52.426;4.886;2022-07-18T03:27:09;14.50;99.90
11573;DHT22;5842;52.426;4.886;2022-07-18T03:29:36;14.50;99.90
11573;DHT22;5842;52.426;4.886;2022-07-18T03:32:03;14.50;99.90
11573;DHT22;5842;52.426;4.886;2022-07-18T03:34:30;14.50;99.90
11573;DHT22;5842;52.426;4.886;2022-07-18T03:36:57;14.50;99.90
11573;DHT22;5842;52.426;4.886;2022-07-18T03:39:26;14.50;99.90
11573;DHT22;5842;52.426;4.886;2022-07-18T03:41:53;14.50;99.90
11573;DHT22;5842;52.426;4.886;2022-07-18T03:44:20;14.50;99.90
11573;DHT22;5842;52.426;4.886;2022-07-18T03:46:48;14.60;99.90
11573;DHT22;5842;52.426;4.886;2022-07-18T03:49:17;14.60;99.90
11573;DHT22;5842;52.426;4.886;2022-07-18T03:51:44;14.70;99.90
11573;DHT22;5842;52.426;4.886;2022-07-18T03:54:11;14.70;99.90
11573;DHT22;5842;52.426;4.886;2022-07-18T03:56:40;14.70;99.90
11573;DHT22;5842;52.426;4.886;2022-07-18T03:59:07;14.80;99.90
11573;DHT22;5842;52.426;4.886;2022-07-18T04:01:35;14.80;99.90
11573;DHT22;5842;52.426;4.886;2022-07-18T04:04:02;14.80;99.90
11573;DHT22;5842;52.426;4.886;2022-07-18T04:06:29;14.80;99.90
11573;DHT22;5842;52.426;4.886;2022-07-18T04:08:56;14.90;99.90
11573;DHT22;5842;52.426;4.886;2022-07-18T04:11:23;14.90;99.90
11573;DHT22;5842;52.426;4.886;2022-07-18T04:13:53;14.90;99.90
11573;DHT22;5842;52.426;4.886;2022-07-18T04:16:21;14.90;99.90
11573;DHT22;5842;52.426;4.886;2022-07-18T04:18:48;14.90;99.90
11573;DHT22;5842;52.426;4.886;2022-07-18T04:21:16;15.00;99.90
11573;DHT22;5842;52.426;4.886;2022-07-18T04:23:43;15.00;99.90
11573;DHT22;5842;52.426;4.886;2022-07-18T04:26:10;15.00;99.90
11573;DHT22;5842;52.426;4.886;2022-07-18T04:28:37;15.00;99.90
11573;DHT22;5842;52.426;4.886;2022-07-18T04:31:06;15.00;99.90
11573;DHT22;5842;52.426;4.886;2022-07-18T04:33:33;15.10;99.90
11573;DHT22;5842;52.426;4.886;2022-07-18T04:36:00;15.20;99.90
11573;DHT22;5842;52.426;4.886;2022-07-18T04:38:27;15.20;99.90
11573;DHT22;5842;52.426;4.886;2022-07-18T04:40:59;15.20;99.90
11573;DHT22;5842;52.426;4.886;2022-07-18T04:43:26;15.30;99.90
11573;DHT22;5842;52.426;4.886;2022-07-18T04:45:53;15.30;99.90
11573;DHT22;5842;52.426;4.886;2022-07-18T04:48:22;15.30;99.90
11573;DHT22;5842;52.426;4.886;2022-07-18T04:50:49;15.40;99.90
11573;DHT22;5842;52.426;4.886;2022-07-18T04:53:17;15.40;99.90
11573;DHT22;5842;52.426;4.886;2022-07-18T04:55:47;15.50;99.90
11573;DHT22;5842;52.426;4.886;2022-07-18T04:58:14;15.60;99.90
11573;DHT22;5842;52.426;4.886;2022-07-18T05:00:41;15.80;99.90
11573;DHT22;5842;52.426;4.886;2022-07-18T05:03:08;16.00;99.90
11573;DHT22;5842;52.426;4.886;2022-07-18T05:05:37;16.80;99.90
11573;DHT22;5842;52.426;4.886;2022-07-18T05:10:32;19.40;99.90
11573;DHT22;5842;52.426;4.886;2022-07-18T05:13:00;20.90;99.90
11573;DHT22;5842;52.426;4.886;2022-07-18T05:17:54;23.30;99.90
11573;DHT22;5842;52.426;4.886;2022-07-18T05:20:21;24.30;99.90
11573;DHT22;5842;52.426;4.886;2022-07-18T05:22:50;24.70;99.10
11573;DHT22;5842;52.426;4.886;2022-07-18T05:25:17;24.60;98.00
11573;DHT22;5842;52.426;4.886;2022-07-18T05:27:44;24.90;98.90
11573;DHT22;5842;52.426;4.886;2022-07-18T05:30:12;25.90;97.30
11573;DHT22;5842;52.426;4.886;2022-07-18T05:32:39;26.90;95.10
11573;DHT22;5842;52.426;4.886;2022-07-18T05:35:07;28.00;93.60
11573;DHT22;5842;52.426;4.886;2022-07-18T05:37:37;28.70;90.50
11573;DHT22;5842;52.426;4.886;2022-07-18T05:40:06;29.20;87.70
11573;DHT22;5842;52.426;4.886;2022-07-18T05:42:33;29.60;88.20
11573;DHT22;5842;52.426;4.886;2022-07-18T05:45:00;30.30;84.80
11573;DHT22;5842;52.426;4.886;2022-07-18T05:47:27;30.80;84.40
11573;DHT22;5842;52.426;4.886;2022-07-18T05:49:54;31.50;81.30
11573;DHT22;5842;52.426;4.886;2022-07-18T05:52:21;31.80;77.10
11573;DHT22;5842;52.426;4.886;2022-07-18T05:54:48;31.20;79.10
11573;DHT22;5842;52.426;4.886;2022-07-18T05:57:16;30.30;79.50
11573;DHT22;5842;52.426;4.886;2022-07-18T05:59:43;30.00;80.10
11573;DHT22;5842;52.426;4.886;2022-07-18T06:02:10;30.90;76.30
11573;DHT22;5842;52.426;4.886;2022-07-18T06:04:37;31.30;68.40
11573;DHT22;5842;52.426;4.886;2022-07-18T06:07:04;31.50;70.00
11573;DHT22;5842;52.426;4.886;2022-07-18T06:09:33;31.30;70.50
11573;DHT22;5842;52.426;4.886;2022-07-18T06:12:00;31.00;65.80
11573;DHT22;5842;52.426;4.886;2022-07-18T06:14:29;30.40;65.30
11573;DHT22;5842;52.426;4.886;2022-07-18T06:16:57;30.60;67.60
11573;DHT22;5842;52.426;4.886;2022-07-18T06:19:24;31.60;66.30
11573;DHT22;5842;52.426;4.886;2022-07-18T06:21:51;32.90;62.50
11573;DHT22;5842;52.426;4.886;2022-07-18T06:24:18;34.30;59.50
11573;DHT22;5842;52.426;4.886;2022-07-18T06:26:45;35.90;54.50
11573;DHT22;5842;52.426;4.886;2022-07-18T06:29:12;36.90;53.60
11573;DHT22;5842;52.426;4.886;2022-07-18T06:34:08;35.00;53.00
11573;DHT22;5842;52.426;4.886;2022-07-18T06:36:35;33.90;54.20
11573;DHT22;5842;52.426;4.886;2022-07-18T06:39:03;33.00;56.80
11573;DHT22;5842;52.426;4.886;2022-07-18T06:41:36;32.50;57.90
11573;DHT22;5842;52.426;4.886;2022-07-18T06:44:03;32.90;57.90
11573;DHT22;5842;52.426;4.886;2022-07-18T06:46:30;34.10;54.20
11573;DHT22;5842;52.426;4.886;2022-07-18T06:48:57;34.80;51.70
11573;DHT22;5842;52.426;4.886;2022-07-18T06:51:25;36.10;53.00
11573;DHT22;5842;52.426;4.886;2022-07-18T06:53:52;37.30;49.80
11573;DHT22;5842;52.426;4.886;2022-07-18T06:56:21;38.60;48.70
11573;DHT22;5842;52.426;4.886;2022-07-18T07:03:43;39.80;43.70
11573;DHT22;5842;52.426;4.886;2022-07-18T07:06:09;39.90;44.20
11573;DHT22;5842;52.426;4.886;2022-07-18T07:08:38;40.10;43.60
11573;DHT22;5842;52.426;4.886;2022-07-18T07:11:05;39.60;42.60
11573;DHT22;5842;52.426;4.886;2022-07-18T07:13:32;38.60;42.10
11573;DHT22;5842;52.426;4.886;2022-07-18T07:15:59;36.60;46.20
11573;DHT22;5842;52.426;4.886;2022-07-18T07:18:26;34.60;47.50
11573;DHT22;5842;52.426;4.886;2022-07-18T07:38:40;29.20;67.40
11573;DHT22;5842;52.426;4.886;2022-07-18T07:41:07;30.90;63.80
11573;DHT22;5842;52.426;4.886;2022-07-18T07:43:34;32.70;57.20
11573;DHT22;5842;52.426;4.886;2022-07-18T07:46:03;34.80;52.80
11573;DHT22;5842;52.426;4.886;2022-07-18T07:48:30;36.60;50.40
11573;DHT22;5842;52.426;4.886;2022-07-18T07:50:57;37.90;48.70
11573;DHT22;5842;52.426;4.886;2022-07-18T07:53:24;38.70;45.60
11573;DHT22;5842;52.426;4.886;2022-07-18T07:55:52;39.70;45.00
11573;DHT22;5842;52.426;4.886;2022-07-18T07:58:19;40.20;44.70
11573;DHT22;5842;52.426;4.886;2022-07-18T08:00:46;41.10;43.90
11573;DHT22;5842;52.426;4.886;2022-07-18T08:03:13;41.50;43.30
11573;DHT22;5842;52.426;4.886;2022-07-18T08:05:43;41.70;41.60
11573;DHT22;5842;52.426;4.886;2022-07-18T08:08:11;41.60;40.40
11573;DHT22;5842;52.426;4.886;2022-07-18T08:10:38;41.90;39.90
11573;DHT22;5842;52.426;4.886;2022-07-18T08:13:07;41.50;38.80
11573;DHT22;5842;52.426;4.886;2022-07-18T08:15:34;41.40;41.50
11573;DHT22;5842;52.426;4.886;2022-07-18T08:18:02;41.10;40.70
11573;DHT22;5842;52.426;4.886;2022-07-18T08:20:29;40.80;40.40
11573;DHT22;5842;52.426;4.886;2022-07-18T08:22:58;40.20;38.60
11573;DHT22;5842;52.426;4.886;2022-07-18T08:25:26;40.00;39.50
11573;DHT22;5842;52.426;4.886;2022-07-18T08:27:53;38.70;43.70
11573;DHT22;5842;52.426;4.886;2022-07-18T08:30:22;37.10;46.00
11573;DHT22;5842;52.426;4.886;2022-07-18T08:32:48;36.50;47.50
11573;DHT22;5842;52.426;4.886;2022-07-18T08:35:15;37.30;44.70
11573;DHT22;5842;52.426;4.886;2022-07-18T08:37:42;38.00;42.30
11573;DHT22;5842;52.426;4.886;2022-07-18T08:40:09;37.20;42.60
11573;DHT22;5842;52.426;4.886;2022-07-18T08:42:36;35.60;45.80
11573;DHT22;5842;52.426;4.886;2022-07-18T08:45:03;34.10;48.30
11573;DHT22;5842;52.426;4.886;2022-07-18T08:47:32;32.80;51.70
11573;DHT22;5842;52.426;4.886;2022-07-18T08:50:00;31.80;52.30
11573;DHT22;5842;52.426;4.886;2022-07-18T08:52:27;30.90;53.00
11573;DHT22;5842;52.426;4.886;2022-07-18T08:54:55;30.00;56.10
11573;DHT22;5842;52.426;4.886;2022-07-18T08:57:22;29.50;56.40
11573;DHT22;5842;52.426;4.886;2022-07-18T08:59:49;29.10;57.00
11573;DHT22;5842;52.426;4.886;2022-07-18T09:02:16;28.70;60.30
11573;DHT22;5842;52.426;4.886;2022-07-18T09:04:45;28.70;62.80
11573;DHT22;5842;52.426;4.886;2022-07-18T09:07:22;29.10;60.00
11573;DHT22;5842;52.426;4.886;2022-07-18T09:09:51;30.20;59.00
11573;DHT22;5842;52.426;4.886;2022-07-18T09:12:18;31.90;54.20
11573;DHT22;5842;52.426;4.886;2022-07-18T09:14:46;33.30;50.60
11573;DHT22;5842;52.426;4.886;2022-07-18T09:17:14;34.40;49.50
11573;DHT22;5842;52.426;4.886;2022-07-18T09:19:42;35.60;46.80
11573;DHT22;5842;52.426;4.886;2022-07-18T09:22:15;36.80;47.80
11573;DHT22;5842;52.426;4.886;2022-07-18T09:24:49;37.60;45.90
11573;DHT22;5842;52.426;4.886;2022-07-18T09:27:22;38.10;45.10
11573;DHT22;5842;52.426;4.886;2022-07-18T09:29:53;38.40;44.80
11573;DHT22;5842;52.426;4.886;2022-07-18T09:32:32;38.20;41.50
11573;DHT22;5842;52.426;4.886;2022-07-18T09:35:04;38.50;41.00
11573;DHT22;5842;52.426;4.886;2022-07-18T09:37:32;38.30;40.70
11573;DHT22;5842;52.426;4.886;2022-07-18T09:40:13;38.80;40.20
11573;DHT22;5842;52.426;4.886;2022-07-18T09:42:40;38.50;44.60
11573;DHT22;5842;52.426;4.886;2022-07-18T09:45:07;38.40;44.90
11573;DHT22;5842;52.426;4.886;2022-07-18T09:47:36;38.40;43.40
11573;DHT22;5842;52.426;4.886;2022-07-18T09:50:19;38.30;44.10
11573;DHT22;5842;52.426;4.886;2022-07-18T09:52:56;37.90;46.00
11573;DHT22;5842;52.426;4.886;2022-07-18T09:55:23;37.50;42.90
11573;DHT22;5842;52.426;4.886;2022-07-18T09:57:55;37.10;41.90
11573;DHT22;5842;52.426;4.886;2022-07-18T10:00:23;36.50;41.80
11573;DHT22;5842;52.426;4.886;2022-07-18T10:02:50;35.40;44.00
11573;DHT22;5842;52.426;4.886;2022-07-18T10:05:17;34.70;44.50
11573;DHT22;5842;52.426;4.886;2022-07-18T10:07:44;34.20;46.70
11573;DHT22;5842;52.426;4.886;2022-07-18T10:10:13;33.80;47.90
11573;DHT22;5842;52.426;4.886;2022-07-18T10:12:40;33.50;46.40
11573;DHT22;5842;52.426;4.886;2022-07-18T10:15:07;33.00;46.40
11573;DHT22;5842;52.426;4.886;2022-07-18T10:17:34;32.70;47.70
11573;DHT22;5842;52.426;4.886;2022-07-18T10:20:02;32.60;49.30
11573;DHT22;5842;52.426;4.886;2022-07-18T10:22:33;32.60;50.90
11573;DHT22;5842;52.426;4.886;2022-07-18T10:25:03;32.80;49.30
11573;DHT22;5842;52.426;4.886;2022-07-18T10:27:31;32.90;50.30
11573;DHT22;5842;52.426;4.886;2022-07-18T10:30:13;33.00;52.30
11573;DHT22;5842;52.426;4.886;2022-07-18T10:32:41;33.10;49.10
11573;DHT22;5842;52.426;4.886;2022-07-18T10:35:09;33.30;48.00
11573;DHT22;5842;52.426;4.886;2022-07-18T10:37:37;33.30;49.20
11573;DHT22;5842;52.426;4.886;2022-07-18T10:40:23;33.50;50.10
11573;DHT22;5842;52.426;4.886;2022-07-18T10:45:46;33.40;47.10
11573;DHT22;5842;52.426;4.886;2022-07-18T10:51:03;33.30;46.30
11573;DHT22;5842;52.426;4.886;2022-07-18T10:56:18;33.70;51.30
11573;DHT22;5842;52.426;4.886;2022-07-18T10:58:44;33.80;48.90
11573;DHT22;5842;52.426;4.886;2022-07-18T11:01:16;33.60;46.40
11573;DHT22;5842;52.426;4.886;2022-07-18T11:03:43;33.70;43.90
11573;DHT22;5842;52.426;4.886;2022-07-18T11:06:10;33.80;43.90
11573;DHT22;5842;52.426;4.886;2022-07-18T11:08:37;34.00;44.40
11573;DHT22;5842;52.426;4.886;2022-07-18T11:11:05;34.10;45.20
11573;DHT22;5842;52.426;4.886;2022-07-18T11:13:33;34.30;48.10
11573;DHT22;5842;52.426;4.886;2022-07-18T11:16:01;34.30;46.70
11573;DHT22;5842;52.426;4.886;2022-07-18T11:18:33;34.30;47.20
11573;DHT22;5842;52.426;4.886;2022-07-18T11:21:00;34.40;45.20
11573;DHT22;5842;52.426;4.886;2022-07-18T11:23:27;34.40;42.90
11573;DHT22;5842;52.426;4.886;2022-07-18T11:25:54;34.60;45.90
11573;DHT22;5842;52.426;4.886;2022-07-18T11:28:24;34.60;42.50
11573;DHT22;5842;52.426;4.886;2022-07-18T11:31:01;34.30;39.70
11573;DHT22;5842;52.426;4.886;2022-07-18T11:33:29;34.40;42.00
11573;DHT22;5842;52.426;4.886;2022-07-18T11:36:04;34.30;41.00
11573;DHT22;5842;52.426;4.886;2022-07-18T11:38:31;34.40;41.70
11573;DHT22;5842;52.426;4.886;2022-07-18T11:40:58;34.60;42.70
11573;DHT22;5842;52.426;4.886;2022-07-18T11:43:26;34.80;41.20
11573;DHT22;5842;52.426;4.886;2022-07-18T11:46:02;34.90;42.70
11573;DHT22;5842;52.426;4.886;2022-07-18T11:48:30;35.00;44.70
11573;DHT22;5842;52.426;4.886;2022-07-18T11:50:57;35.30;47.00
11573;DHT22;5842;52.426;4.886;2022-07-18T11:53:25;35.50;49.00
11573;DHT22;5842;52.426;4.886;2022-07-18T11:55:52;35.60;43.60
11573;DHT22;5842;52.426;4.886;2022-07-18T11:58:20;35.40;43.20
11573;DHT22;5842;52.426;4.886;2022-07-18T12:00:47;35.30;42.70
11573;DHT22;5842;52.426;4.886;2022-07-18T12:03:15;35.20;41.60
11573;DHT22;5842;52.426;4.886;2022-07-18T12:05:43;35.10;40.70
11573;DHT22;5842;52.426;4.886;2022-07-18T12:08:31;34.90;42.40
11573;DHT22;5842;52.426;4.886;2022-07-18T12:11:02;34.70;44.00
11573;DHT22;5842;52.426;4.886;2022-07-18T12:13:38;34.70;42.50
11573;DHT22;5842;52.426;4.886;2022-07-18T12:16:05;34.40;42.90
11573;DHT22;5842;52.426;4.886;2022-07-18T12:18:32;34.30;46.00
11573;DHT22;5842;52.426;4.886;2022-07-18T12:21:06;34.40;49.80
11573;DHT22;5842;52.426;4.886;2022-07-18T12:23:34;34.60;45.10
11573;DHT22;5842;52.426;4.886;2022-07-18T12:26:01;34.60;47.50
11573;DHT22;5842;52.426;4.886;2022-07-18T12:28:28;34.80;47.10
11573;DHT22;5842;52.426;4.886;2022-07-18T12:30:55;34.90;45.40
11573;DHT22;5842;52.426;4.886;2022-07-18T12:33:25;35.00;44.00
11573;DHT22;5842;52.426;4.886;2022-07-18T12:35:56;35.20;46.40
11573;DHT22;5842;52.426;4.886;2022-07-18T12:38:23;35.40;44.70
11573;DHT22;5842;52.426;4.886;2022-07-18T12:40:53;35.50;45.50
11573;DHT22;5842;52.426;4.886;2022-07-18T12:43:23;35.30;46.70
11573;DHT22;5842;52.426;4.886;2022-07-18T12:45:51;35.40;47.00
11573;DHT22;5842;52.426;4.886;2022-07-18T12:48:18;35.40;46.70
11573;DHT22;5842;52.426;4.886;2022-07-18T12:50:45;35.50;44.20
11573;DHT22;5842;52.426;4.886;2022-07-18T12:53:12;35.50;45.90
11573;DHT22;5842;52.426;4.886;2022-07-18T12:55:39;35.50;47.20
11573;DHT22;5842;52.426;4.886;2022-07-18T12:58:07;35.30;43.70
11573;DHT22;5842;52.426;4.886;2022-07-18T13:00:34;35.40;45.10
11573;DHT22;5842;52.426;4.886;2022-07-18T13:03:01;35.30;44.60
11573;DHT22;5842;52.426;4.886;2022-07-18T13:05:29;35.40;47.30
11573;DHT22;5842;52.426;4.886;2022-07-18T13:07:56;35.50;47.80
11573;DHT22;5842;52.426;4.886;2022-07-18T13:10:23;35.50;47.50
11573;DHT22;5842;52.426;4.886;2022-07-18T13:12:50;35.50;48.10
11573;DHT22;5842;52.426;4.886;2022-07-18T13:15:19;35.50;48.00
11573;DHT22;5842;52.426;4.886;2022-07-18T13:17:46;35.50;48.60
11573;DHT22;5842;52.426;4.886;2022-07-18T13:20:14;35.60;48.60
11573;DHT22;5842;52.426;4.886;2022-07-18T13:22:41;35.50;45.70
11573;DHT22;5842;52.426;4.886;2022-07-18T13:25:08;35.50;49.00
11573;DHT22;5842;52.426;4.886;2022-07-18T13:27:36;35.50;48.00
11573;DHT22;5842;52.426;4.886;2022-07-18T13:30:04;35.50;48.10
11573;DHT22;5842;52.426;4.886;2022-07-18T13:32:33;35.60;51.30
11573;DHT22;5842;52.426;4.886;2022-07-18T13:35:00;35.60;46.90
11573;DHT22;5842;52.426;4.886;2022-07-18T13:37:31;35.60;47.80
11573;DHT22;5842;52.426;4.886;2022-07-18T13:40:03;35.60;45.00
11573;DHT22;5842;52.426;4.886;2022-07-18T13:42:31;35.50;45.70
11573;DHT22;5842;52.426;4.886;2022-07-18T13:44:59;35.60;43.20
11573;DHT22;5842;52.426;4.886;2022-07-18T13:47:25;35.50;43.70
11573;DHT22;5842;52.426;4.886;2022-07-18T13:49:57;35.50;46.50
11573;DHT22;5842;52.426;4.886;2022-07-18T13:52:24;35.50;48.10
11573;DHT22;5842;52.426;4.886;2022-07-18T13:54:51;35.40;46.60
11573;DHT22;5842;52.426;4.886;2022-07-18T13:57:19;35.40;46.50
11573;DHT22;5842;52.426;4.886;2022-07-18T13:59:47;35.30;47.10
11573;DHT22;5842;52.426;4.886;2022-07-18T14:02:15;35.20;43.30
11573;DHT22;5842;52.426;4.886;2022-07-18T14:04:42;35.20;48.00
11573;DHT22;5842;52.426;4.886;2022-07-18T14:07:11;35.20;46.20
11573;DHT22;5842;52.426;4.886;2022-07-18T14:09:42;35.30;43.80
11573;DHT22;5842;52.426;4.886;2022-07-18T14:12:09;35.20;44.40
11573;DHT22;5842;52.426;4.886;2022-07-18T14:14:38;35.20;45.80
11573;DHT22;5842;52.426;4.886;2022-07-18T14:17:05;35.20;46.00
11573;DHT22;5842;52.426;4.886;2022-07-18T14:19:40;35.30;48.30
11573;DHT22;5842;52.426;4.886;2022-07-18T14:22:13;35.50;47.10
11573;DHT22;5842;52.426;4.886;2022-07-18T14:24:45;35.60;48.60
11573;DHT22;5842;52.426;4.886;2022-07-18T14:27:20;35.60;46.30
11573;DHT22;5842;52.426;4.886;2022-07-18T14:29:47;35.50;45.30
11573;DHT22;5842;52.426;4.886;2022-07-18T14:32:14;35.60;45.10
11573;DHT22;5842;52.426;4.886;2022-07-18T14:34:41;35.60;45.80
11573;DHT22;5842;52.426;4.886;2022-07-18T14:37:08;35.50;46.70
11573;DHT22;5842;52.426;4.886;2022-07-18T14:39:36;35.50;46.90
11573;DHT22;5842;52.426;4.886;2022-07-18T14:42:03;35.30;46.70
11573;DHT22;5842;52.426;4.886;2022-07-18T14:44:30;35.30;47.50
11573;DHT22;5842;52.426;4.886;2022-07-18T14:46:57;35.30;48.50
11573;DHT22;5842;52.426;4.886;2022-07-18T14:49:24;35.30;45.70
11573;DHT22;5842;52.426;4.886;2022-07-18T14:51:51;35.30;47.10
11573;DHT22;5842;52.426;4.886;2022-07-18T14:54:18;35.10;48.30
11573;DHT22;5842;52.426;4.886;2022-07-18T14:56:46;35.20;47.70
11573;DHT22;5842;52.426;4.886;2022-07-18T14:59:13;35.20;46.00
11573;DHT22;5842;52.426;4.886;2022-07-18T15:01:41;35.20;47.80
11573;DHT22;5842;52.426;4.886;2022-07-18T15:04:10;35.20;47.90
11573;DHT22;5842;52.426;4.886;2022-07-18T15:06:37;35.30;50.20
11573;DHT22;5842;52.426;4.886;2022-07-18T15:09:05;35.30;49.90
11573;DHT22;5842;52.426;4.886;2022-07-18T15:11:34;35.30;48.60
11573;DHT22;5842;52.426;4.886;2022-07-18T15:14:02;35.40;46.60
11573;DHT22;5842;52.426;4.886;2022-07-18T15:16:29;35.20;47.50
11573;DHT22;5842;52.426;4.886;2022-07-18T15:18:56;35.00;50.10
11573;DHT22;5842;52.426;4.886;2022-07-18T15:21:23;34.90;48.80
11573;DHT22;5842;52.426;4.886;2022-07-18T15:23:50;34.80;48.10
11573;DHT22;5842;52.426;4.886;2022-07-18T15:26:17;34.60;50.00
11573;DHT22;5842;52.426;4.886;2022-07-18T15:28:44;34.60;48.90
11573;DHT22;5842;52.426;4.886;2022-07-18T15:31:12;34.50;49.30
11573;DHT22;5842;52.426;4.886;2022-07-18T15:33:39;34.50;50.40
11573;DHT22;5842;52.426;4.886;2022-07-18T15:36:06;34.60;50.70
11573;DHT22;5842;52.426;4.886;2022-07-18T15:38:33;34.50;51.70
11573;DHT22;5842;52.426;4.886;2022-07-18T15:41:00;34.50;49.20
11573;DHT22;5842;52.426;4.886;2022-07-18T15:43:27;34.30;49.20
11573;DHT22;5842;52.426;4.886;2022-07-18T15:45:54;34.30;49.20
11573;DHT22;5842;52.426;4.886;2022-07-18T15:48:22;34.30;49.60
11573;DHT22;5842;52.426;4.886;2022-07-18T15:50:49;34.30;48.20
11573;DHT22;5842;52.426;4.886;2022-07-18T15:53:16;34.20;46.80
11573;DHT22;5842;52.426;4.886;2022-07-18T15:55:43;34.10;48.90
11573;DHT22;5842;52.426;4.886;2022-07-18T15:58:10;34.10;47.70
11573;DHT22;5842;52.426;4.886;2022-07-18T16:00:37;33.90;46.50
11573;DHT22;5842;52.426;4.886;2022-07-18T16:03:04;33.70;47.40
11573;DHT22;5842;52.426;4.886;2022-07-18T16:05:32;33.60;49.80
11573;DHT22;5842;52.426;4.886;2022-07-18T16:07:59;33.50;47.00
11573;DHT22;5842;52.426;4.886;2022-07-18T16:10:28;33.50;48.10
11573;DHT22;5842;52.426;4.886;2022-07-18T16:12:56;33.40;49.80
11573;DHT22;5842;52.426;4.886;2022-07-18T16:15:25;33.30;50.60
11573;DHT22;5842;52.426;4.886;2022-07-18T16:17:52;33.20;51.80
11573;DHT22;5842;52.426;4.886;2022-07-18T16:20:19;33.10;49.40
11573;DHT22;5842;52.426;4.886;2022-07-18T16:22:48;32.90;51.00
11573;DHT22;5842;52.426;4.886;2022-07-18T16:25:14;32.80;51.10
11573;DHT22;5842;52.426;4.886;2022-07-18T16:27:41;32.70;52.30
11573;DHT22;5842;52.426;4.886;2022-07-18T16:30:08;32.70;51.40
11573;DHT22;5842;52.426;4.886;2022-07-18T16:32:35;32.50;51.90